createdAt,value
2019-01-25T00:01:47.253Z,-1.01
2019-01-25T00:04:16.450Z,-1.06
2019-01-25T00:06:45.659Z,-1.18
2019-01-25T00:09:33.874Z,-1.18
2019-01-25T00:12:03.039Z,-1.31
2019-01-25T00:14:32.224Z,-1.21
2019-01-25T00:19:56.918Z,-1.11
2019-01-25T00:22:26.547Z,-0.94
2019-01-25T00:24:55.750Z,-0.82
2019-01-25T00:27:24.910Z,-0.71
2019-01-25T00:29:54.143Z,-0.84
2019-01-25T00:32:23.327Z,-1.03
2019-01-25T00:34:52.542Z,-1.23
2019-01-25T00:37:21.736Z,-1.21
2019-01-25T00:39:51.311Z,-1.05
2019-01-25T00:42:20.499Z,-0.95
2019-01-25T00:44:50.046Z,-0.90
2019-01-25T00:47:19.223Z,-1.10
2019-01-25T00:49:48.475Z,-1.41
2019-01-25T00:52:17.685Z,-1.64
2019-01-25T00:54:47.216Z,-1.75
2019-01-25T00:57:16.430Z,-1.74
2019-01-25T00:59:45.916Z,-1.55
2019-01-25T01:02:15.133Z,-1.45
2019-01-25T01:04:44.317Z,-1.26
2019-01-25T01:07:13.500Z,-1.14
2019-01-25T01:09:42.717Z,-1.40
2019-01-25T01:12:11.897Z,-1.69
2019-01-25T01:14:41.407Z,-1.66
2019-01-25T01:17:10.915Z,-1.66
2019-01-25T01:19:40.419Z,-1.75
2019-01-25T01:22:09.611Z,-1.81
2019-01-25T01:24:38.798Z,-1.85
2019-01-25T01:27:08.097Z,-1.81
2019-01-25T01:29:37.303Z,-1.84
2019-01-25T01:32:06.618Z,-1.73
2019-01-25T01:34:35.804Z,-1.87
2019-01-25T01:37:44.392Z,-1.83
2019-01-25T01:40:54.582Z,-1.76
2019-01-25T01:43:23.786Z,-1.66
2019-01-25T01:45:53.296Z,-1.92
2019-01-25T01:48:22.510Z,-1.90
2019-01-25T01:50:51.694Z,-1.78
2019-01-25T01:53:20.905Z,-1.71
2019-01-25T01:55:50.080Z,-1.48
2019-01-25T01:58:19.272Z,-1.21
2019-01-25T02:00:48.474Z,-1.11
2019-01-25T02:03:17.995Z,-1.27
2019-01-25T02:05:47.176Z,-1.34
2019-01-25T02:08:16.354Z,-1.40
2019-01-25T02:10:45.658Z,-1.21
2019-01-25T02:13:14.852Z,-1.12
2019-01-25T02:15:44.383Z,-1.27
2019-01-25T02:18:13.561Z,-1.33
2019-01-25T02:20:42.748Z,-1.30
2019-01-25T02:23:11.965Z,-1.23
2019-01-25T02:28:29.335Z,-1.47
2019-01-25T02:30:58.918Z,-1.35
2019-01-25T02:33:28.125Z,-1.30
2019-01-25T02:35:57.302Z,-1.68
2019-01-25T02:38:26.513Z,-1.81
2019-01-25T02:41:14.781Z,-1.85
2019-01-25T02:43:44.362Z,-1.83
2019-01-25T02:46:13.551Z,-1.77
2019-01-25T02:48:42.767Z,-1.59
2019-01-25T02:51:11.948Z,-1.59
2019-01-25T02:53:41.128Z,-1.66
2019-01-25T02:56:10.345Z,-1.71
2019-01-25T02:58:39.523Z,-1.75
2019-01-25T03:01:08.725Z,-1.80
2019-01-25T03:03:37.904Z,-1.82
2019-01-25T03:06:07.223Z,-2.03
2019-01-25T03:08:36.435Z,-1.97
2019-01-25T03:11:45.029Z,-2.06
2019-01-25T03:14:14.214Z,-1.98
2019-01-25T03:16:43.414Z,-1.94
2019-01-25T03:19:12.872Z,-1.96
2019-01-25T03:22:01.132Z,-1.80
2019-01-25T03:24:30.342Z,-1.83
2019-01-25T03:26:59.534Z,-1.86
2019-01-25T03:29:28.727Z,-2.03
2019-01-25T03:32:05.196Z,-2.07
2019-01-25T03:34:34.407Z,-2.03
2019-01-25T03:37:03.594Z,-2.13
2019-01-25T03:39:32.782Z,-2.15
2019-01-25T03:42:01.981Z,-2.22
2019-01-25T03:44:31.200Z,-2.11
2019-01-25T03:47:00.668Z,-2.23
2019-01-25T03:49:29.856Z,-2.28
2019-01-25T03:52:18.055Z,-2.36
2019-01-25T03:54:47.235Z,-2.28
2019-01-25T03:57:16.438Z,-2.39
2019-01-25T03:59:45.618Z,-2.40
2019-01-25T04:02:14.802Z,-2.18
2019-01-25T04:04:44.013Z,-2.13
2019-01-25T04:07:13.486Z,-2.07
2019-01-25T04:09:42.694Z,-2.11
2019-01-25T04:12:12.193Z,-2.22
2019-01-25T04:14:41.393Z,-2.12
2019-01-25T04:17:10.892Z,-2.03
2019-01-25T04:19:40.397Z,-2.12
2019-01-25T04:22:09.582Z,-2.31
2019-01-25T04:24:38.789Z,-2.20
2019-01-25T04:27:07.969Z,-2.22
2019-01-25T04:29:37.171Z,-2.19
2019-01-25T04:32:06.369Z,-2.20
2019-01-25T04:34:35.553Z,-2.02
2019-01-25T04:37:05.198Z,-2.16
2019-01-25T04:39:34.380Z,-1.90
2019-01-25T04:42:03.601Z,-1.83
2019-01-25T04:44:32.791Z,-1.96
2019-01-25T04:47:01.976Z,-2.10
2019-01-25T04:50:10.565Z,-2.00
2019-01-25T04:52:39.869Z,-1.92
2019-01-25T04:55:29.571Z,-1.86
2019-01-25T04:58:18.659Z,-1.68
2019-01-25T05:00:48.300Z,-1.61
2019-01-25T05:03:17.488Z,-1.72
2019-01-25T05:08:42.356Z,-1.78
2019-01-25T05:11:30.640Z,-1.88
2019-01-25T05:14:18.759Z,-1.98
2019-01-25T05:16:47.959Z,-1.84
2019-01-25T05:19:17.142Z,-2.07
2019-01-25T05:21:46.357Z,-2.07
2019-01-25T05:24:15.547Z,-2.16
2019-01-25T05:26:44.736Z,-2.20
2019-01-25T05:29:13.990Z,-2.04
2019-01-25T05:31:43.192Z,-2.20
2019-01-25T05:34:12.406Z,-2.24
2019-01-25T05:36:41.584Z,-2.22
2019-01-25T05:39:11.138Z,-2.13
2019-01-25T05:41:40.336Z,-2.01
2019-01-25T05:44:09.515Z,-2.01
2019-01-25T05:46:38.727Z,-2.05
2019-01-25T05:49:26.870Z,-2.09
2019-01-25T05:52:14.982Z,-2.15
2019-01-25T05:54:44.197Z,-2.15
2019-01-25T05:57:32.457Z,-2.05
2019-01-25T06:02:37.662Z,-2.04
2019-01-25T06:05:07.155Z,-2.04
2019-01-25T06:07:36.720Z,-2.04
2019-01-25T06:10:45.971Z,-2.03
2019-01-25T06:13:15.156Z,-2.06
2019-01-25T06:15:44.614Z,-2.05
2019-01-25T06:18:13.816Z,-2.11
2019-01-25T06:20:43.017Z,-2.19
2019-01-25T06:23:12.217Z,-2.22
2019-01-25T06:25:41.409Z,-2.22
2019-01-25T06:28:10.628Z,-2.33
2019-01-25T06:30:39.832Z,-2.47
2019-01-25T06:33:09.044Z,-2.51
2019-01-25T06:35:38.233Z,-2.51
2019-01-25T06:38:07.439Z,-2.44
2019-01-25T06:43:24.830Z,-2.24
2019-01-25T06:45:54.025Z,-2.22
2019-01-25T06:48:23.291Z,-2.28
2019-01-25T06:53:27.504Z,-2.10
2019-01-25T06:55:56.707Z,-2.00
2019-01-25T06:58:44.822Z,-1.98
2019-01-25T07:01:32.962Z,-1.89
2019-01-25T07:04:02.149Z,-1.75
2019-01-25T07:06:31.357Z,-1.75
2019-01-25T07:09:00.543Z,-1.75
2019-01-25T07:11:29.746Z,-1.69
2019-01-25T07:13:58.929Z,-1.83
2019-01-25T07:16:28.134Z,-2.23
2019-01-25T07:18:57.320Z,-2.28
2019-01-25T07:21:26.796Z,-2.24
2019-01-25T07:23:55.979Z,-2.32
2019-01-25T07:26:25.151Z,-2.26
2019-01-25T07:28:54.373Z,-2.45
2019-01-25T07:31:23.583Z,-2.33
2019-01-25T07:33:52.788Z,-2.25
2019-01-25T07:36:22.528Z,-2.06
2019-01-25T07:38:51.785Z,-1.88
2019-01-25T07:41:21.011Z,-1.82
2019-01-25T07:43:50.218Z,-2.04
2019-01-25T07:46:19.404Z,-2.11
2019-01-25T07:48:48.609Z,-2.17
2019-01-25T07:51:17.788Z,-2.25
2019-01-25T07:53:47.106Z,-2.13
2019-01-25T07:56:16.506Z,-1.90
2019-01-25T07:58:45.664Z,-2.01
2019-01-25T08:01:14.920Z,-1.99
2019-01-25T08:03:44.084Z,-2.00
2019-01-25T08:06:13.301Z,-2.08
2019-01-25T08:08:42.753Z,-2.24
2019-01-25T08:11:11.988Z,-2.19
2019-01-25T08:13:41.227Z,-2.28
2019-01-25T08:16:10.434Z,-2.36
2019-01-25T08:18:39.638Z,-2.34
2019-01-25T08:21:08.846Z,-2.28
2019-01-25T08:23:56.976Z,-2.02
2019-01-25T08:26:26.180Z,-1.76
2019-01-25T08:28:55.386Z,-1.65
2019-01-25T08:31:24.793Z,-1.75
2019-01-25T08:33:54.159Z,-1.85
2019-01-25T08:36:23.488Z,-1.98
2019-01-25T08:38:52.729Z,-2.03
2019-01-25T08:41:21.956Z,-2.04
2019-01-25T08:43:51.205Z,-2.10
2019-01-25T08:46:20.376Z,-2.07
2019-01-25T08:48:49.582Z,-2.20
2019-01-25T08:51:18.761Z,-2.19
2019-01-25T08:53:47.965Z,-2.33
2019-01-25T08:56:17.139Z,-2.16
2019-01-25T08:58:46.889Z,-2.04
2019-01-25T09:01:16.052Z,-1.89
2019-01-25T09:03:45.244Z,-1.61
2019-01-25T09:06:14.776Z,-1.53
2019-01-25T09:08:43.969Z,-1.30
2019-01-25T09:11:13.298Z,-1.10
2019-01-25T09:13:42.477Z,-1.05
2019-01-25T09:16:11.685Z,-1.27
2019-01-25T09:18:40.869Z,-1.27
2019-01-25T09:21:10.075Z,-1.28
2019-01-25T09:23:39.255Z,-1.22
2019-01-25T09:26:08.572Z,-1.34
2019-01-25T09:28:37.752Z,-1.33
2019-01-25T09:31:07.264Z,-1.43
2019-01-25T09:33:36.771Z,-1.45
2019-01-25T09:36:05.954Z,-1.36
2019-01-25T09:38:35.137Z,-1.46
2019-01-25T09:44:00.290Z,-1.31
2019-01-25T09:46:30.199Z,-1.23
2019-01-25T09:49:00.404Z,-1.33
2019-01-25T09:51:29.594Z,-1.44
2019-01-25T09:53:58.797Z,-1.63
2019-01-25T09:56:28.323Z,-1.43
2019-01-25T09:58:58.367Z,-1.45
2019-01-25T10:01:27.944Z,-1.54
2019-01-25T10:03:57.132Z,-1.66
2019-01-25T10:06:26.352Z,-1.66
2019-01-25T10:08:55.534Z,-1.67
2019-01-25T10:11:43.748Z,-1.70
2019-01-25T10:14:13.245Z,-1.91
2019-01-25T10:16:42.424Z,-2.03
2019-01-25T10:19:11.618Z,-2.12
2019-01-25T10:21:40.793Z,-2.02
2019-01-25T10:24:29.074Z,-1.98
2019-01-25T10:26:58.634Z,-1.91
2019-01-25T10:29:28.135Z,-1.94
2019-01-25T10:31:57.348Z,-1.89
2019-01-25T10:34:26.564Z,-1.96
2019-01-25T10:36:55.746Z,-1.99
2019-01-25T10:39:24.984Z,-2.01
2019-01-25T10:41:54.167Z,-1.91
2019-01-25T10:44:23.379Z,-1.81
2019-01-25T10:46:52.581Z,-1.80
2019-01-25T10:49:22.128Z,-1.83
2019-01-25T10:51:51.336Z,-2.01
2019-01-25T10:54:20.828Z,-1.97
2019-01-25T10:56:50.028Z,-1.93
2019-01-25T10:59:19.209Z,-2.10
2019-01-25T11:01:48.812Z,-2.06
2019-01-25T11:04:18.009Z,-1.99
2019-01-25T11:06:47.573Z,-1.99
2019-01-25T11:09:16.754Z,-1.93
2019-01-25T11:11:46.340Z,-1.95
2019-01-25T11:14:15.520Z,-2.00
2019-01-25T11:16:44.720Z,-2.25
2019-01-25T11:19:13.911Z,-2.30
2019-01-25T11:21:43.111Z,-2.34
2019-01-25T11:24:12.297Z,-2.15
2019-01-25T11:26:41.523Z,-2.03
2019-01-25T11:29:10.728Z,-2.06
2019-01-25T11:31:39.941Z,-2.15
2019-01-25T11:34:09.155Z,-2.07
2019-01-25T11:36:38.335Z,-2.03
2019-01-25T11:39:49.358Z,-1.53
2019-01-25T11:42:18.658Z,-1.33
2019-01-25T11:44:47.873Z,-1.19
2019-01-25T11:47:17.063Z,-1.43
2019-01-25T11:49:46.310Z,-1.61
2019-01-25T11:52:15.823Z,-1.40
2019-01-25T11:54:45.036Z,-1.38
2019-01-25T11:57:14.665Z,-1.13
2019-01-25T11:59:43.901Z,-1.34
2019-01-25T12:02:13.089Z,-1.27
2019-01-25T12:04:42.308Z,-1.00
2019-01-25T12:07:11.952Z,-1.10
2019-01-25T12:09:41.169Z,-1.34
2019-01-25T12:12:10.371Z,-1.32
2019-01-25T12:14:39.559Z,-1.24
2019-01-25T12:17:08.927Z,-1.12
2019-01-25T12:19:38.106Z,-1.15
2019-01-25T12:22:07.326Z,-1.23
2019-01-25T12:24:36.513Z,-1.38
2019-01-25T12:27:05.725Z,-1.39
2019-01-25T12:29:34.901Z,-1.16
2019-01-25T12:32:04.234Z,-1.12
2019-01-25T12:34:33.417Z,-1.02
2019-01-25T12:37:04.724Z,-1.05
2019-01-25T12:39:33.893Z,-0.97
2019-01-25T12:42:03.101Z,-0.93
2019-01-25T12:44:32.310Z,-0.83
2019-01-25T12:47:01.510Z,-0.86
2019-01-25T12:49:30.723Z,-0.56
2019-01-25T12:55:13.011Z,-0.62
2019-01-25T12:57:42.212Z,-0.77
2019-01-25T13:08:59.932Z,-0.48
2019-01-25T13:11:29.142Z,-0.81
2019-01-25T13:13:58.327Z,-0.78
2019-01-25T13:16:27.537Z,-1.15
2019-01-25T13:18:56.730Z,-1.33
2019-01-25T13:21:26.320Z,-1.19
2019-01-25T13:23:55.507Z,-1.05
2019-01-25T13:26:25.020Z,-1.31
2019-01-25T13:28:54.232Z,-1.31
2019-01-25T13:31:23.521Z,-1.22
2019-01-25T13:33:52.789Z,-0.98
2019-01-25T13:36:22.036Z,-0.84
2019-01-25T13:38:51.942Z,-0.69
2019-01-25T13:41:21.464Z,-0.52
2019-01-25T13:43:50.794Z,-0.60
2019-01-25T13:49:08.183Z,-0.47
2019-01-25T13:51:37.365Z,-0.54
2019-01-25T13:54:07.802Z,-0.56
2019-01-25T13:56:37.488Z,-0.60
2019-01-25T13:59:07.916Z,-0.62
2019-01-25T14:01:37.942Z,-0.70
2019-01-25T14:04:07.152Z,-0.79
2019-01-25T14:06:36.328Z,-0.88
2019-01-25T14:09:46.734Z,-0.86
2019-01-25T14:12:15.937Z,-0.92
2019-01-25T14:14:45.420Z,-0.85
2019-01-25T14:17:14.604Z,-0.88
2019-01-25T14:19:43.790Z,-0.85
2019-01-25T14:22:13.006Z,-0.82
2019-01-25T14:24:42.198Z,-0.81
2019-01-25T14:27:11.376Z,-0.70
2019-01-25T14:29:40.582Z,-0.81
2019-01-25T14:32:10.106Z,-0.77
2019-01-25T14:34:39.343Z,-0.63
2019-01-25T14:37:08.525Z,-0.66
2019-01-25T14:39:38.005Z,-0.91
2019-01-25T14:42:07.224Z,-0.90
2019-01-25T14:44:36.408Z,-0.81
2019-01-25T14:47:05.595Z,-0.76
2019-01-25T14:49:34.800Z,-0.72
2019-01-25T14:52:04.081Z,-0.87
2019-01-25T14:54:33.277Z,-0.79
2019-01-25T14:57:02.511Z,-0.76
2019-01-25T14:59:31.700Z,-0.69
2019-01-25T15:02:00.891Z,-0.79
2019-01-25T15:04:30.106Z,-0.68
2019-01-25T15:06:59.292Z,-0.64
2019-01-25T15:09:28.483Z,-0.69
2019-01-25T15:12:16.781Z,-0.71
2019-01-25T15:14:46.327Z,-0.73
2019-01-25T15:17:15.539Z,-0.89
2019-01-25T15:19:44.831Z,-0.87
2019-01-25T15:22:14.003Z,-1.00
2019-01-25T15:24:43.186Z,-1.19
2019-01-25T15:27:12.381Z,-1.21
2019-01-25T15:38:09.587Z,-0.89
2019-01-25T15:40:38.767Z,-0.90
2019-01-25T15:43:07.963Z,-1.04
2019-01-25T15:45:37.172Z,-1.05
2019-01-25T15:48:06.485Z,-1.06
2019-01-25T15:50:35.767Z,-1.04
2019-01-25T15:53:05.155Z,-1.00
2019-01-25T15:55:34.367Z,-1.02
2019-01-25T15:58:03.565Z,-0.97
2019-01-25T16:00:32.929Z,-0.89
2019-01-25T16:03:02.530Z,-0.85
2019-01-25T16:05:31.779Z,-0.75
2019-01-25T16:08:01.327Z,-0.73
2019-01-25T16:10:30.707Z,-0.69
2019-01-25T16:12:59.915Z,-0.93
2019-01-25T16:15:31.372Z,-1.00
2019-01-25T16:18:00.580Z,-1.07
2019-01-25T16:20:29.911Z,-0.94
2019-01-25T16:22:59.591Z,-0.92
2019-01-25T16:25:31.115Z,-0.84
2019-01-25T16:28:00.317Z,-0.87
2019-01-25T16:33:40.146Z,-0.96
2019-01-25T16:36:09.327Z,-1.00
2019-01-25T16:38:38.565Z,-1.03
2019-01-25T16:41:07.747Z,-0.95
2019-01-25T16:43:36.948Z,-0.87
2019-01-25T16:46:06.184Z,-0.89
2019-01-25T16:48:35.391Z,-0.80
2019-01-25T16:51:04.895Z,-0.85
2019-01-25T16:53:34.089Z,-0.81
2019-01-25T16:56:03.272Z,-0.77
2019-01-25T16:58:32.479Z,-0.77
2019-01-25T17:01:01.993Z,-0.78
2019-01-25T17:03:31.200Z,-0.78
2019-01-25T17:06:00.410Z,-0.94
2019-01-25T17:08:29.997Z,-0.87
2019-01-25T17:10:59.211Z,-1.02
2019-01-25T17:13:28.492Z,-0.89
2019-01-25T17:15:57.728Z,-0.76
2019-01-25T17:18:26.921Z,-0.90
2019-01-25T17:20:56.125Z,-1.07
2019-01-25T17:23:25.691Z,-0.91
2019-01-25T17:25:55.051Z,-0.92
2019-01-25T17:28:24.293Z,-0.83
2019-01-25T17:30:53.504Z,-0.88
2019-01-25T17:33:22.690Z,-0.84
2019-01-25T17:35:52.210Z,-0.78
2019-01-25T17:38:21.389Z,-0.78
2019-01-25T17:40:50.640Z,-0.80
2019-01-25T17:43:19.872Z,-0.81
2019-01-25T17:45:49.093Z,-0.79
2019-01-25T17:48:18.388Z,-0.83
2019-01-25T17:50:47.987Z,-0.73
2019-01-25T17:53:17.182Z,-0.65
2019-01-25T17:55:46.392Z,-0.77
2019-01-25T17:58:16.299Z,-1.00
2019-01-25T18:03:28.097Z,-0.96
2019-01-25T18:05:57.487Z,-1.17
2019-01-25T18:08:26.748Z,-1.08
2019-01-25T18:10:55.948Z,-0.97
2019-01-25T18:13:25.128Z,-0.93
2019-01-25T18:15:54.348Z,-0.95
2019-01-25T18:18:23.525Z,-1.02
2019-01-25T18:20:52.737Z,-0.86
2019-01-25T18:23:21.921Z,-0.87
2019-01-25T18:26:11.702Z,-0.88
2019-01-25T18:28:55.426Z,-0.78
2019-01-25T18:31:25.866Z,-0.91
2019-01-25T18:33:55.397Z,-0.86
2019-01-25T18:36:24.601Z,-0.78
2019-01-25T18:38:53.792Z,-0.78
2019-01-25T18:41:22.997Z,-0.88
2019-01-25T18:43:52.208Z,-0.93
2019-01-25T18:46:21.413Z,-1.02
2019-01-25T18:48:50.995Z,-1.06
2019-01-25T18:51:20.206Z,-1.19
2019-01-25T18:53:49.395Z,-1.09
2019-01-25T18:56:20.175Z,-1.07
2019-01-25T18:58:49.394Z,-1.18
2019-01-25T19:01:18.574Z,-1.16
2019-01-25T19:03:48.175Z,-1.11
2019-01-25T19:06:17.362Z,-1.19
2019-01-25T19:08:46.572Z,-1.14
2019-01-25T19:11:16.481Z,-1.19
2019-01-25T19:13:45.701Z,-1.21
2019-01-25T19:16:14.902Z,-1.15
2019-01-25T19:18:44.113Z,-1.19
2019-01-25T19:21:13.285Z,-1.23
2019-01-25T19:23:42.629Z,-1.28
2019-01-25T19:26:11.838Z,-1.22
2019-01-25T19:28:41.054Z,-1.36
2019-01-25T19:31:10.575Z,-1.41
2019-01-25T19:33:40.079Z,-1.31
2019-01-25T19:36:09.279Z,-1.39
2019-01-25T19:38:38.522Z,-1.29
2019-01-25T19:41:07.757Z,-1.26
2019-01-25T19:46:12.561Z,-1.26
2019-01-25T19:48:41.764Z,-1.41
2019-01-25T19:51:11.412Z,-1.38
2019-01-25T19:53:40.618Z,-1.35
2019-01-25T19:56:09.805Z,-1.33
2019-01-25T19:58:41.941Z,-1.43
2019-01-25T20:01:11.134Z,-1.57
2019-01-25T20:03:40.359Z,-1.54
2019-01-25T20:06:09.744Z,-1.54
2019-01-25T20:08:39.099Z,-1.63
2019-01-25T20:11:08.286Z,-1.52
2019-01-25T20:13:37.709Z,-1.59
2019-01-25T20:16:06.896Z,-1.52
2019-01-25T20:18:38.004Z,-1.40
2019-01-25T20:21:07.276Z,-1.37
2019-01-25T20:23:36.501Z,-1.38
2019-01-25T20:26:45.269Z,-1.63
2019-01-25T20:29:14.530Z,-1.55
2019-01-25T20:32:02.672Z,-1.47
2019-01-25T20:34:31.899Z,-1.39
2019-01-25T20:37:01.102Z,-1.38
2019-01-25T20:39:30.345Z,-1.46
2019-01-25T20:42:00.008Z,-1.43
2019-01-25T20:44:29.271Z,-1.45
2019-01-25T20:46:58.530Z,-1.43
2019-01-25T20:52:07.504Z,-1.38
2019-01-25T20:54:37.043Z,-1.38
2019-01-25T20:57:06.254Z,-1.37
2019-01-25T20:59:35.490Z,-1.34
2019-01-25T21:02:04.943Z,-1.42
2019-01-25T21:04:34.199Z,-1.38
2019-01-25T21:07:03.457Z,-1.31
2019-01-25T21:09:32.732Z,-1.31
2019-01-25T21:12:02.017Z,-1.34
2019-01-25T21:14:31.251Z,-1.40
2019-01-25T21:17:00.524Z,-1.40
2019-01-25T21:19:29.776Z,-1.59
2019-01-25T21:21:59.339Z,-1.58
2019-01-25T21:24:28.664Z,-1.47
2019-01-25T21:26:57.869Z,-1.37
2019-01-25T21:29:27.446Z,-1.38
2019-01-25T21:31:56.634Z,-1.43
2019-01-25T21:34:25.838Z,-1.54
2019-01-25T21:36:55.340Z,-1.51
2019-01-25T21:39:24.547Z,-1.54
2019-01-25T21:41:53.724Z,-1.49
2019-01-25T21:44:22.935Z,-1.52
2019-01-25T21:46:52.150Z,-1.54
2019-01-25T21:49:21.741Z,-1.50
2019-01-25T21:52:10.292Z,-1.48
2019-01-25T21:54:40.050Z,-1.40
2019-01-25T21:57:09.654Z,-1.40
2019-01-25T21:59:39.252Z,-1.38
2019-01-25T22:02:08.458Z,-1.40
2019-01-25T22:04:37.761Z,-1.32
2019-01-25T22:07:06.993Z,-1.48
2019-01-25T22:09:36.545Z,-1.47
2019-01-25T22:12:05.730Z,-1.29
2019-01-25T22:14:35.873Z,-1.38
2019-01-25T22:17:05.240Z,-1.35
2019-01-25T22:19:34.832Z,-1.29
2019-01-25T22:25:34.590Z,-1.21
2019-01-25T22:28:03.909Z,-1.23
2019-01-25T22:30:33.516Z,-1.23
2019-01-25T22:33:02.698Z,-1.23
2019-01-25T22:35:31.932Z,-1.29
2019-01-25T22:38:01.487Z,-1.32
2019-01-25T22:40:32.366Z,-1.27
2019-01-25T22:43:01.558Z,-1.26
2019-01-25T22:45:31.876Z,-1.25
2019-01-25T22:48:02.793Z,-1.24
2019-01-25T22:50:34.356Z,-1.33
2019-01-25T22:53:03.555Z,-1.35
2019-01-25T22:55:51.756Z,-1.45
2019-01-25T22:58:20.940Z,-1.42
2019-01-25T23:01:28.217Z,-1.45
2019-01-25T23:04:35.467Z,-1.38
2019-01-25T23:07:27.720Z,-1.40
2019-01-25T23:10:01.948Z,-1.40
2019-01-25T23:12:31.128Z,-1.40
2019-01-25T23:15:00.350Z,-1.36
2019-01-25T23:17:29.536Z,-1.26
2019-01-25T23:19:58.750Z,-1.23
2019-01-25T23:22:27.931Z,-1.19
2019-01-25T23:24:57.139Z,-1.32
2019-01-25T23:27:45.408Z,-1.28
2019-01-25T23:30:57.924Z,-1.34
2019-01-25T23:33:27.455Z,-1.40
2019-01-25T23:35:56.722Z,-1.25
2019-01-25T23:38:25.920Z,-1.20
2019-01-25T23:40:55.127Z,-1.31
2019-01-25T23:43:24.435Z,-1.38
2019-01-25T23:45:53.642Z,-1.32
2019-01-25T23:48:22.825Z,-1.42
2019-01-25T23:50:52.052Z,-1.27
2019-01-25T23:53:21.204Z,-1.20
2019-01-25T23:55:50.410Z,-1.20
2019-01-25T23:58:19.595Z,-1.09
